Time;durP1;ratioP1;P1;durP2;ratioP2;P2;SDS_P1;SDS_P2;PMS_P1;PMS_P2;Temp;Humidity;BMP_temperature;BMP_pressure;BME280_temperature;BME280_humidity;BME280_pressure;Samples;Min_cycle;Max_cycle;Signal;HPM_P1;HPM_P2
2024/03/06 00:00:55;;;;;;;0.17;0.17;;;;;;;;;;4879297;29;20041;-66
2024/03/06 00:03:20;;;;;;;0.10;0.10;;;;;;;;;;4879882;29;20389;-66
2024/03/06 00:05:45;;;;;;;1.47;0.63;;;;;;;;;;4879211;29;20264;-66
2024/03/06 00:08:11;;;;;;;0.20;0.20;;;;;;;;;;4879349;29;20041;-66
2024/03/06 00:10:36;;;;;;;0.22;0.22;;;;;;;;;;4879565;29;20025;-66
2024/03/06 00:13:01;;;;;;;0.30;0.30;;;;;;;;;;4879549;29;20033;-66
2024/03/06 00:15:27;;;;;;;0.20;0.20;;;;;;;;;;4879394;29;20355;-66
2024/03/06 00:17:52;;;;;;;0.08;0.08;;;;;;;;;;4879477;29;20025;-66
2024/03/06 00:20:18;;;;;;;0.10;0.10;;;;;;;;;;4879432;29;20472;-66
2024/03/06 00:22:43;;;;;;;0.20;0.20;;;;;;;;;;4879366;29;20021;-66
2024/03/06 00:25:08;;;;;;;0.10;0.10;;;;;;;;;;4879245;29;20061;-66
2024/03/06 00:27:33;;;;;;;0.63;0.60;;;;;;;;;;4879433;29;20029;-66
2024/03/06 00:29:58;;;;;;;0.57;0.57;;;;;;;;;;4879316;29;20490;-66
2024/03/06 00:32:24;;;;;;;0.60;0.60;;;;;;;;;;4879051;29;20347;-66
2024/03/06 00:34:49;;;;;;;0.47;0.47;;;;;;;;;;4879427;29;20084;-66
2024/03/06 00:37:14;;;;;;;0.17;0.17;;;;;;;;;;4879175;29;20505;-66
2024/03/06 00:39:39;;;;;;;0.40;0.40;;;;;;;;;;4879003;29;20156;-66
2024/03/06 00:42:05;;;;;;;0.20;0.20;;;;;;;;;;4879081;29;20064;-66
2024/03/06 00:44:30;;;;;;;0.30;0.30;;;;;;;;;;4878966;29;20096;-66
2024/03/06 00:46:55;;;;;;;0.20;0.20;;;;;;;;;;4878675;29;20315;-66
2024/03/06 00:49:20;;;;;;;0.10;0.10;;;;;;;;;;4880044;29;20264;-66
2024/03/06 00:51:46;;;;;;;3.77;1.70;;;;;;;;;;4882919;29;20599;-66
2024/03/06 00:54:11;;;;;;;0.20;0.20;;;;;;;;;;4882861;29;20292;-66
2024/03/06 00:56:39;;;;;;;0.87;0.37;;;;;;;;;;4882773;29;20415;-66
2024/03/06 00:59:05;;;;;;;0.98;0.98;;;;;;;;;;4882710;29;20264;-66
2024/03/06 01:01:30;;;;;;;0.10;0.10;;;;;;;;;;4882738;29;20125;-66
2024/03/06 01:03:55;;;;;;;0.10;0.10;;;;;;;;;;4883081;29;20082;-66
2024/03/06 01:06:20;;;;;;;0.30;0.30;;;;;;;;;;4882886;29;20280;-66
2024/03/06 01:08:46;;;;;;;0.20;0.20;;;;;;;;;;4883006;29;20025;-66
2024/03/06 01:11:14;;;;;;;1.45;1.35;;;;;;;;;;4883202;29;20036;-66
2024/03/06 01:13:39;;;;;;;0.10;0.10;;;;;;;;;;4882702;29;20057;-67
2024/03/06 01:16:05;;;;;;;0.10;0.10;;;;;;;;;;4882296;29;20063;-67
2024/03/06 01:18:30;;;;;;;0.13;0.13;;;;;;;;;;4882710;29;20256;-67
2024/03/06 01:21:03;;;;;;;0.30;0.30;;;;;;;;;;4882507;29;20032;-67
2024/03/06 01:23:28;;;;;;;0.50;0.50;;;;;;;;;;4882362;29;20063;-67
2024/03/06 01:25:53;;;;;;;1.00;0.97;;;;;;;;;;4882148;29;20056;-67
2024/03/06 01:28:19;;;;;;;0.10;0.10;;;;;;;;;;4882227;29;20565;-67
2024/03/06 01:30:44;;;;;;;0.40;0.40;;;;;;;;;;4882401;29;20029;-67
2024/03/06 01:33:09;;;;;;;0.10;0.10;;;;;;;;;;4881886;29;20415;-67
2024/03/06 01:35:35;;;;;;;0.10;0.10;;;;;;;;;;4881949;29;20616;-67
2024/03/06 01:38:01;;;;;;;0.20;0.20;;;;;;;;;;4882153;29;20068;-67
2024/03/06 01:40:27;;;;;;;0.20;0.20;;;;;;;;;;4881722;29;20063;-67
2024/03/06 01:42:52;;;;;;;0.73;0.73;;;;;;;;;;4882257;29;20025;-67
2024/03/06 01:45:17;;;;;;;0.20;0.20;;;;;;;;;;4882058;29;20367;-66
2024/03/06 01:47:42;;;;;;;0.63;0.63;;;;;;;;;;4881560;29;20644;-67
2024/03/06 01:50:09;;;;;;;0.60;0.60;;;;;;;;;;4881992;29;20028;-67
2024/03/06 01:52:35;;;;;;;1.98;1.83;;;;;;;;;;4881891;29;20033;-67
2024/03/06 01:55:00;;;;;;;0.20;0.20;;;;;;;;;;4874098;29;20033;-67
2024/03/06 01:57:26;;;;;;;0.10;0.10;;;;;;;;;;4881736;29;20029;-67
2024/03/06 01:59:51;;;;;;;0.80;0.77;;;;;;;;;;4881243;29;20553;-67
2024/03/06 02:02:16;;;;;;;0.20;0.20;;;;;;;;;;4880599;29;20033;-67
2024/03/06 02:04:41;;;;;;;0.10;0.10;;;;;;;;;;4881612;29;20100;-66
2024/03/06 02:07:13;;;;;;;0.10;0.10;;;;;;;;;;4881614;29;20760;-67
2024/03/06 02:09:38;;;;;;;0.45;0.45;;;;;;;;;;4881580;29;20025;-67
2024/03/06 02:12:04;;;;;;;0.10;0.10;;;;;;;;;;4881318;29;20419;-67
2024/03/06 02:14:29;;;;;;;0.25;0.25;;;;;;;;;;4881490;29;20439;-67
2024/03/06 02:16:55;;;;;;;0.10;0.10;;;;;;;;;;4881419;29;20021;-66
2024/03/06 02:19:20;;;;;;;0.10;0.10;;;;;;;;;;4881248;29;20028;-67
2024/03/06 02:21:52;;;;;;;1.35;1.23;;;;;;;;;;4881291;29;20256;-67
2024/03/06 02:24:17;;;;;;;1.38;1.27;;;;;;;;;;4881439;29;20041;-66
2024/03/06 02:26:42;;;;;;;0.32;0.32;;;;;;;;;;4881286;29;20052;-67
2024/03/06 02:29:08;;;;;;;0.13;0.13;;;;;;;;;;4881130;29;20028;-67
2024/03/06 02:31:33;;;;;;;0.20;0.20;;;;;;;;;;4881220;29;20025;-67
2024/03/06 02:33:58;;;;;;;0.10;0.10;;;;;;;;;;4881044;29;20044;-67
2024/03/06 02:36:24;;;;;;;0.10;0.10;;;;;;;;;;4881286;29;20033;-67
2024/03/06 02:38:49;;;;;;;1.60;1.10;;;;;;;;;;4880758;29;20386;-67
2024/03/06 02:41:15;;;;;;;0.30;0.30;;;;;;;;;;4880843;29;20021;-67
2024/03/06 02:43:41;;;;;;;0.13;0.13;;;;;;;;;;4881207;29;20107;-67
2024/03/06 02:46:06;;;;;;;0.40;0.40;;;;;;;;;;4880927;29;20500;-67
2024/03/06 02:48:31;;;;;;;0.07;0.07;;;;;;;;;;4880911;29;20497;-66
2024/03/06 02:50:57;;;;;;;0.30;0.30;;;;;;;;;;4880639;29;20279;-67
2024/03/06 02:53:22;;;;;;;0.10;0.10;;;;;;;;;;4880580;29;20061;-67
2024/03/06 02:55:47;;;;;;;0.20;0.20;;;;;;;;;;4881052;29;20292;-67
2024/03/06 02:58:13;;;;;;;0.90;0.63;;;;;;;;;;4880715;29;20036;-67
2024/03/06 03:00:41;;;;;;;0.50;0.50;;;;;;;;;;4880176;29;20049;-67
2024/03/06 03:03:06;;;;;;;0.10;0.10;;;;;;;;;;4880587;29;20089;-67
2024/03/06 03:05:33;;;;;;;0.30;0.30;;;;;;;;;;4880818;29;20041;-66
2024/03/06 03:07:58;;;;;;;0.28;0.28;;;;;;;;;;4880758;29;20065;-66
2024/03/06 03:10:24;;;;;;;0.17;0.17;;;;;;;;;;4880837;29;20021;-67
2024/03/06 03:12:49;;;;;;;0.10;0.10;;;;;;;;;;4880532;29;20284;-67
2024/03/06 03:15:15;;;;;;;0.10;0.10;;;;;;;;;;4880387;29;20061;-67
2024/03/06 03:17:41;;;;;;;0.93;0.90;;;;;;;;;;4880337;29;20041;-67
2024/03/06 03:20:12;;;;;;;0.30;0.30;;;;;;;;;;4880246;29;20081;-67
2024/03/06 03:22:39;;;;;;;0.40;0.40;;;;;;;;;;4880396;29;20098;-66
2024/03/06 03:25:07;;;;;;;0.15;0.15;;;;;;;;;;4880214;29;20073;-67
2024/03/06 03:27:32;;;;;;;1.20;1.00;;;;;;;;;;4880269;29;20482;-67
2024/03/06 03:29:58;;;;;;;0.65;0.65;;;;;;;;;;4880100;29;20081;-67
2024/03/06 03:32:23;;;;;;;2.10;1.50;;;;;;;;;;4879956;29;20064;-66
2024/03/06 03:34:48;;;;;;;0.00;0.00;;;;;;;;;;4880036;29;20767;-67
2024/03/06 03:37:14;;;;;;;0.10;0.10;;;;;;;;;;4879929;29;20037;-66
2024/03/06 03:39:39;;;;;;;0.10;0.10;;;;;;;;;;4879844;29;20033;-67
2024/03/06 03:42:06;;;;;;;0.10;0.10;;;;;;;;;;4879735;29;20033;-66
2024/03/06 03:44:31;;;;;;;0.10;0.10;;;;;;;;;;4879911;29;20124;-67
2024/03/06 03:46:56;;;;;;;0.10;0.10;;;;;;;;;;4879687;29;20028;-67
2024/03/06 03:49:22;;;;;;;0.10;0.10;;;;;;;;;;4879630;29;20085;-67
2024/03/06 03:51:47;;;;;;;0.10;0.10;;;;;;;;;;4879496;29;20268;-67
2024/03/06 03:54:12;;;;;;;0.20;0.20;;;;;;;;;;4879758;29;20021;-67
2024/03/06 03:56:45;;;;;;;0.10;0.10;;;;;;;;;;4879464;29;20049;-67
2024/03/06 03:59:10;;;;;;;0.20;0.20;;;;;;;;;;4879670;29;20073;-67
2024/03/06 04:01:42;;;;;;;0.10;0.10;;;;;;;;;;4879056;29;20081;-67
2024/03/06 04:04:08;;;;;;;0.20;0.20;;;;;;;;;;4879542;29;20276;-66
2024/03/06 04:06:33;;;;;;;0.20;0.20;;;;;;;;;;4879725;29;20052;-67
2024/03/06 04:08:58;;;;;;;0.50;0.35;;;;;;;;;;4879549;29;20539;-67
2024/03/06 04:11:23;;;;;;;2.00;1.90;;;;;;;;;;4879515;29;20031;-67
2024/03/06 04:13:49;;;;;;;0.10;0.10;;;;;;;;;;4879446;29;20029;-67
2024/03/06 04:16:20;;;;;;;0.33;0.33;;;;;;;;;;4879229;29;20032;-66
2024/03/06 04:18:46;;;;;;;0.10;0.10;;;;;;;;;;4879537;29;20093;-66
2024/03/06 04:21:11;;;;;;;0.28;0.28;;;;;;;;;;4879516;29;20502;-66
2024/03/06 04:23:37;;;;;;;0.10;0.10;;;;;;;;;;4879083;29;20081;-66
2024/03/06 04:26:03;;;;;;;0.10;0.10;;;;;;;;;;4878977;29;20386;-67
2024/03/06 04:28:28;;;;;;;0.43;0.43;;;;;;;;;;4879293;29;20051;-67
2024/03/06 04:30:53;;;;;;;0.10;0.10;;;;;;;;;;4878815;29;20390;-67
2024/03/06 04:33:18;;;;;;;0.30;0.30;;;;;;;;;;4879129;29;20497;-67
2024/03/06 04:35:44;;;;;;;0.10;0.10;;;;;;;;;;4878961;29;20673;-67
2024/03/06 04:38:09;;;;;;;0.60;0.33;;;;;;;;;;4879231;29;20031;-67
2024/03/06 04:40:34;;;;;;;0.27;0.27;;;;;;;;;;4879083;29;20032;-67
2024/03/06 04:43:00;;;;;;;0.10;0.10;;;;;;;;;;4879107;29;20048;-66
2024/03/06 04:45:25;;;;;;;0.30;0.30;;;;;;;;;;4879087;29;20670;-67
2024/03/06 04:47:50;;;;;;;0.10;0.10;;;;;;;;;;4878972;29;20085;-67
2024/03/06 04:50:17;;;;;;;0.23;0.23;;;;;;;;;;4878864;29;20027;-67
2024/03/06 04:52:42;;;;;;;0.50;0.50;;;;;;;;;;4879201;29;20768;-67
2024/03/06 04:55:09;;;;;;;0.30;0.30;;;;;;;;;;4878944;29;20060;-67
2024/03/06 04:57:35;;;;;;;1.85;1.65;;;;;;;;;;4878992;29;20029;-67
2024/03/06 05:00:08;;;;;;;0.10;0.10;;;;;;;;;;4878634;29;20045;-67
2024/03/06 05:02:37;;;;;;;0.10;0.10;;;;;;;;;;4878456;29;20037;-66
2024/03/06 05:05:03;;;;;;;0.10;0.10;;;;;;;;;;4878764;29;20462;-67
2024/03/06 05:07:29;;;;;;;0.10;0.10;;;;;;;;;;4878989;29;20025;-67
2024/03/06 05:09:54;;;;;;;0.25;0.25;;;;;;;;;;4879130;29;20493;-67
2024/03/06 05:12:19;;;;;;;1.35;0.90;;;;;;;;;;4878705;29;20482;-67
2024/03/06 05:14:44;;;;;;;0.40;0.40;;;;;;;;;;4878881;29;20033;-66
2024/03/06 05:17:10;;;;;;;0.10;0.10;;;;;;;;;;4878814;29;20017;-67
2024/03/06 05:19:35;;;;;;;0.40;0.32;;;;;;;;;;4878821;29;20148;-67
2024/03/06 05:22:01;;;;;;;0.20;0.20;;;;;;;;;;4878644;29;20378;-67
2024/03/06 05:24:26;;;;;;;0.10;0.10;;;;;;;;;;4878842;29;20471;-66
2024/03/06 05:26:51;;;;;;;0.00;0.00;;;;;;;;;;4878509;29;20280;-67
2024/03/06 05:29:16;;;;;;;0.10;0.10;;;;;;;;;;4878697;29;20025;-66
2024/03/06 05:31:41;;;;;;;0.10;0.10;;;;;;;;;;4878730;29;20628;-67
2024/03/06 05:34:07;;;;;;;0.30;0.30;;;;;;;;;;4878401;29;20260;-66
2024/03/06 05:36:32;;;;;;;0.10;0.10;;;;;;;;;;4881193;29;20113;-66
2024/03/06 05:38:57;;;;;;;0.10;0.10;;;;;;;;;;4882328;29;20028;-66
2024/03/06 05:41:23;;;;;;;0.25;0.25;;;;;;;;;;4881889;29;20024;-67
2024/03/06 05:43:48;;;;;;;0.30;0.30;;;;;;;;;;4881450;29;20077;-66
2024/03/06 05:46:13;;;;;;;0.03;0.03;;;;;;;;;;4881428;29;20029;-67
2024/03/06 05:48:38;;;;;;;0.10;0.10;;;;;;;;;;4881397;29;20476;-67
2024/03/06 05:51:05;;;;;;;0.10;0.10;;;;;;;;;;4881294;29;20020;-68
2024/03/06 05:53:30;;;;;;;0.10;0.10;;;;;;;;;;4881764;29;20748;-67
2024/03/06 05:55:55;;;;;;;1.93;1.80;;;;;;;;;;4880692;29;20036;-67
2024/03/06 05:58:21;;;;;;;0.30;0.30;;;;;;;;;;4880904;29;20332;-66
2024/03/06 06:00:52;;;;;;;0.10;0.10;;;;;;;;;;4880119;29;20065;-66
2024/03/06 06:03:24;;;;;;;0.10;0.10;;;;;;;;;;4880653;29;20041;-67
2024/03/06 06:05:49;;;;;;;0.40;0.40;;;;;;;;;;4880563;29;20028;-66
2024/03/06 06:08:14;;;;;;;0.97;0.87;;;;;;;;;;4880253;29;20041;-67
2024/03/06 06:10:40;;;;;;;0.13;0.13;;;;;;;;;;4880091;29;20274;-66
2024/03/06 06:13:05;;;;;;;0.23;0.23;;;;;;;;;;4880292;29;20016;-67
2024/03/06 06:15:30;;;;;;;0.10;0.10;;;;;;;;;;4880329;29;20666;-67
2024/03/06 06:17:55;;;;;;;0.10;0.10;;;;;;;;;;4880411;29;20108;-66
2024/03/06 06:20:21;;;;;;;0.10;0.10;;;;;;;;;;4880382;29;20366;-66
2024/03/06 06:22:46;;;;;;;0.67;0.67;;;;;;;;;;4879849;29;20021;-66
2024/03/06 06:25:12;;;;;;;0.10;0.10;;;;;;;;;;4880601;29;20284;-67
2024/03/06 06:27:38;;;;;;;0.10;0.10;;;;;;;;;;4881253;29;20276;-67
2024/03/06 06:30:03;;;;;;;0.10;0.10;;;;;;;;;;4881465;29;20389;-67
2024/03/06 06:32:28;;;;;;;0.35;0.35;;;;;;;;;;4881286;29;20029;-67
2024/03/06 06:34:53;;;;;;;0.10;0.10;;;;;;;;;;4880990;29;20038;-66
2024/03/06 06:37:19;;;;;;;0.10;0.10;;;;;;;;;;4881156;29;20033;-67
2024/03/06 06:39:44;;;;;;;0.43;0.43;;;;;;;;;;4881298;29;20021;-67
2024/03/06 06:42:10;;;;;;;0.10;0.10;;;;;;;;;;4880987;29;20482;-66
2024/03/06 06:44:35;;;;;;;0.68;0.68;;;;;;;;;;4881122;29;20092;-67
2024/03/06 06:47:01;;;;;;;0.22;0.22;;;;;;;;;;4880234;29;20036;-67
2024/03/06 06:49:26;;;;;;;0.10;0.10;;;;;;;;;;4880860;29;20382;-67
2024/03/06 06:51:51;;;;;;;0.40;0.40;;;;;;;;;;4880660;29;20029;-67
2024/03/06 06:54:16;;;;;;;0.10;0.10;;;;;;;;;;4880841;29;20051;-67
2024/03/06 06:56:42;;;;;;;0.10;0.10;;;;;;;;;;4880847;29;20123;-67
2024/03/06 06:59:07;;;;;;;0.73;0.73;;;;;;;;;;4880505;29;20085;-67
2024/03/06 07:01:32;;;;;;;0.40;0.37;;;;;;;;;;4880434;29;20124;-67
2024/03/06 07:03:58;;;;;;;2.10;0.73;;;;;;;;;;4880540;29;20021;-66
2024/03/06 07:06:23;;;;;;;0.30;0.30;;;;;;;;;;4880341;29;20073;-66
2024/03/06 07:08:48;;;;;;;0.25;0.25;;;;;;;;;;4879557;29;20436;-66
2024/03/06 07:11:16;;;;;;;0.30;0.30;;;;;;;;;;4880549;29;20032;-66
2024/03/06 07:13:41;;;;;;;0.10;0.10;;;;;;;;;;4880297;29;20043;-66
2024/03/06 07:16:06;;;;;;;0.20;0.20;;;;;;;;;;4880392;29;20386;-66
2024/03/06 07:18:32;;;;;;;0.10;0.10;;;;;;;;;;4880173;29;20375;-66
2024/03/06 07:20:57;;;;;;;0.33;0.27;;;;;;;;;;4880248;29;20075;-66
2024/03/06 07:23:22;;;;;;;0.20;0.20;;;;;;;;;;4880314;29;20264;-66
2024/03/06 07:25:47;;;;;;;0.67;0.67;;;;;;;;;;4878460;29;20741;-66
2024/03/06 07:28:12;;;;;;;0.10;0.10;;;;;;;;;;4879611;29;20085;-66
2024/03/06 07:30:38;;;;;;;0.10;0.10;;;;;;;;;;4880160;29;20120;-66
2024/03/06 07:33:04;;;;;;;0.10;0.10;;;;;;;;;;4880019;29;20303;-66
2024/03/06 07:35:29;;;;;;;0.75;0.75;;;;;;;;;;4879718;29;20093;-66
2024/03/06 07:37:54;;;;;;;0.10;0.10;;;;;;;;;;4879898;29;20021;-66
2024/03/06 07:40:20;;;;;;;0.23;0.23;;;;;;;;;;4879777;29;20371;-66
2024/03/06 07:42:45;;;;;;;0.10;0.10;;;;;;;;;;4874631;29;20029;-66
2024/03/06 07:45:11;;;;;;;0.30;0.30;;;;;;;;;;4872279;29;20032;-66
2024/03/06 07:47:37;;;;;;;0.20;0.20;;;;;;;;;;4872484;29;20469;-66
2024/03/06 07:50:03;;;;;;;0.43;0.43;;;;;;;;;;4877444;29;20030;-66
2024/03/06 07:52:28;;;;;;;0.47;0.47;;;;;;;;;;4879929;29;20401;-66
2024/03/06 07:54:53;;;;;;;0.10;0.10;;;;;;;;;;4879751;29;20021;-66
2024/03/06 07:57:18;;;;;;;0.57;0.57;;;;;;;;;;4879691;29;20111;-66
2024/03/06 07:59:44;;;;;;;0.47;0.47;;;;;;;;;;4874885;29;20272;-66
2024/03/06 08:02:09;;;;;;;0.00;0.00;;;;;;;;;;4879389;29;20045;-66
2024/03/06 08:04:35;;;;;;;0.73;0.73;;;;;;;;;;4879715;29;20268;-66
2024/03/06 08:07:00;;;;;;;1.10;1.02;;;;;;;;;;4879470;29;20764;-66
2024/03/06 08:09:28;;;;;;;0.43;0.43;;;;;;;;;;4879624;29;20022;-66
2024/03/06 08:11:54;;;;;;;0.40;0.40;;;;;;;;;;4879704;29;20252;-66
2024/03/06 08:14:19;;;;;;;0.32;0.22;;;;;;;;;;4879330;29;20842;-66
2024/03/06 08:16:44;;;;;;;0.27;0.27;;;;;;;;;;4879304;29;20100;-66
2024/03/06 08:19:09;;;;;;;1.23;1.07;;;;;;;;;;4879287;29;20477;-66
2024/03/06 08:21:35;;;;;;;0.27;0.27;;;;;;;;;;4879225;29;20074;-66
2024/03/06 08:24:00;;;;;;;0.63;0.63;;;;;;;;;;4879197;29;20033;-66
2024/03/06 08:26:25;;;;;;;0.73;0.55;;;;;;;;;;4879258;29;20354;-66
2024/03/06 08:28:51;;;;;;;0.52;0.52;;;;;;;;;;4879333;29;20382;-66
2024/03/06 08:31:16;;;;;;;0.63;0.63;;;;;;;;;;4879201;29;20029;-66
2024/03/06 08:33:42;;;;;;;0.07;0.07;;;;;;;;;;4878918;29;20052;-66
2024/03/06 08:36:07;;;;;;;0.00;0.00;;;;;;;;;;4879035;29;20263;-67
2024/03/06 08:38:32;;;;;;;0.17;0.17;;;;;;;;;;4878980;29;20037;-66
2024/03/06 08:40:57;;;;;;;0.00;0.00;;;;;;;;;;4878850;29;20021;-66
2024/03/06 08:43:23;;;;;;;0.47;0.47;;;;;;;;;;4879409;29;20033;-66
2024/03/06 08:45:48;;;;;;;0.10;0.10;;;;;;;;;;4879088;29;20736;-66
2024/03/06 08:48:13;;;;;;;0.10;0.10;;;;;;;;;;4878857;29;20156;-66
2024/03/06 08:50:39;;;;;;;0.20;0.20;;;;;;;;;;4878948;29;20373;-66
2024/03/06 08:53:04;;;;;;;0.25;0.25;;;;;;;;;;4879027;29;20025;-66
2024/03/06 08:55:29;;;;;;;0.60;0.60;;;;;;;;;;4879115;29;20031;-66
2024/03/06 08:57:54;;;;;;;0.50;0.50;;;;;;;;;;4878736;29;20621;-66
2024/03/06 09:00:19;;;;;;;0.10;0.10;;;;;;;;;;4878625;29;20252;-66
2024/03/06 09:02:45;;;;;;;0.30;0.30;;;;;;;;;;4878215;29;20048;-66
2024/03/06 09:05:12;;;;;;;0.73;0.63;;;;;;;;;;4879030;29;20040;-66
2024/03/06 09:07:40;;;;;;;0.45;0.45;;;;;;;;;;4878913;29;20291;-66
2024/03/06 09:10:05;;;;;;;0.17;0.17;;;;;;;;;;4879519;29;20126;-66
2024/03/06 09:12:31;;;;;;;0.10;0.10;;;;;;;;;;4882489;29;20479;-66
2024/03/06 09:14:56;;;;;;;0.10;0.10;;;;;;;;;;4882293;29;20021;-66
2024/03/06 09:17:21;;;;;;;0.17;0.17;;;;;;;;;;4882414;29;20268;-66
2024/03/06 09:19:46;;;;;;;0.20;0.20;;;;;;;;;;4882421;29;20124;-66
2024/03/06 09:22:11;;;;;;;0.00;0.00;;;;;;;;;;4878159;29;20037;-67
2024/03/06 09:24:38;;;;;;;0.10;0.10;;;;;;;;;;4876919;29;20394;-66
2024/03/06 09:27:03;;;;;;;1.45;0.32;;;;;;;;;;4872878;29;20025;-66
2024/03/06 09:29:29;;;;;;;0.40;0.25;;;;;;;;;;4879967;29;20029;-67
2024/03/06 09:31:54;;;;;;;0.98;0.30;;;;;;;;;;4876076;29;20017;-66
2024/03/06 09:34:21;;;;;;;0.80;0.43;;;;;;;;;;4879784;29;20108;-67
2024/03/06 09:36:47;;;;;;;0.20;0.20;;;;;;;;;;4872257;29;20635;-67
2024/03/06 09:39:12;;;;;;;0.10;0.10;;;;;;;;;;4874789;29;20127;-67
2024/03/06 09:41:42;;;;;;;0.10;0.10;;;;;;;;;;4881194;29;20039;-67
2024/03/06 09:44:07;;;;;;;0.50;0.50;;;;;;;;;;4881318;29;20418;-66
2024/03/06 09:46:34;;;;;;;0.10;0.10;;;;;;;;;;4880866;29;20037;-66
2024/03/06 09:48:59;;;;;;;0.35;0.35;;;;;;;;;;4881199;29;20028;-63
2024/03/06 09:51:25;;;;;;;0.60;0.52;;;;;;;;;;4881345;29;20029;-64
2024/03/06 09:53:51;;;;;;;0.10;0.10;;;;;;;;;;4880563;29;20030;-66
2024/03/06 09:56:16;;;;;;;0.52;0.52;;;;;;;;;;4881246;29;20032;-64
2024/03/06 09:58:42;;;;;;;0.20;0.20;;;;;;;;;;4881370;29;20021;-64
2024/03/06 10:01:07;;;;;;;0.10;0.10;;;;;;;;;;4880867;29;20493;-65
2024/03/06 10:03:33;;;;;;;0.47;0.47;;;;;;;;;;4881520;29;20017;-67
2024/03/06 10:05:58;;;;;;;0.15;0.15;;;;;;;;;;4881239;29;20082;-66
2024/03/06 10:08:26;;;;;;;1.00;0.40;;;;;;;;;;4878976;29;20397;-69
2024/03/06 10:10:51;;;;;;;0.63;0.63;;;;;;;;;;4881379;29;20320;-67
2024/03/06 10:13:17;;;;;;;0.35;0.28;;;;;;;;;;4880897;29;20424;-67
2024/03/06 10:15:42;;;;;;;0.32;0.32;;;;;;;;;;4880899;29;20042;-66
2024/03/06 10:18:15;;;;;;;0.30;0.30;;;;;;;;;;4880902;29;20072;-66
2024/03/06 10:20:43;;;;;;;0.00;0.00;;;;;;;;;;4881018;29;20112;-66
2024/03/06 10:23:08;;;;;;;0.32;0.32;;;;;;;;;;4879142;29;20040;-65
2024/03/06 10:25:34;;;;;;;0.25;0.25;;;;;;;;;;4880979;29;20092;-66
2024/03/06 10:28:06;;;;;;;0.20;0.20;;;;;;;;;;4880835;29;20029;-68
2024/03/06 10:30:32;;;;;;;0.52;0.52;;;;;;;;;;4881269;29;20248;-68
2024/03/06 10:32:58;;;;;;;0.10;0.10;;;;;;;;;;4881330;29;20514;-68
2024/03/06 10:35:24;;;;;;;0.15;0.15;;;;;;;;;;4880699;29;20021;-69
2024/03/06 10:37:50;;;;;;;0.20;0.20;;;;;;;;;;4879947;29;20511;-69
2024/03/06 10:40:17;;;;;;;0.40;0.28;;;;;;;;;;4880248;29;20056;-69
2024/03/06 10:42:42;;;;;;;0.20;0.20;;;;;;;;;;4880450;29;20025;-69
2024/03/06 10:45:08;;;;;;;0.22;0.22;;;;;;;;;;4880495;29;20032;-69
2024/03/06 10:47:34;;;;;;;0.32;0.32;;;;;;;;;;4880256;29;20028;-69
2024/03/06 10:50:00;;;;;;;0.20;0.20;;;;;;;;;;4880156;29;20039;-69
2024/03/06 10:52:27;;;;;;;0.32;0.28;;;;;;;;;;4879902;29;20478;-69
2024/03/06 10:54:53;;;;;;;0.20;0.20;;;;;;;;;;4880538;29;20534;-68
2024/03/06 10:57:19;;;;;;;0.20;0.20;;;;;;;;;;4879647;29;20089;-68
2024/03/06 10:59:44;;;;;;;0.30;0.30;;;;;;;;;;4880263;29;20082;-69
2024/03/06 11:02:12;;;;;;;0.00;0.00;;;;;;;;;;4879328;29;20041;-69
2024/03/06 11:04:40;;;;;;;0.15;0.15;;;;;;;;;;4879700;29;20082;-69
2024/03/06 11:07:05;;;;;;;0.68;0.50;;;;;;;;;;4879562;29;20065;-69
2024/03/06 11:09:40;;;;;;;0.30;0.30;;;;;;;;;;4879423;29;20064;-69
2024/03/06 11:12:06;;;;;;;0.10;0.10;;;;;;;;;;4880069;29;20029;-69
2024/03/06 11:14:33;;;;;;;0.00;0.00;;;;;;;;;;4879531;29;20116;-69
2024/03/06 11:17:02;;;;;;;0.50;0.40;;;;;;;;;;4880168;29;20567;-69
2024/03/06 11:19:27;;;;;;;1.77;0.90;;;;;;;;;;4879736;29;20485;-69
2024/03/06 11:21:52;;;;;;;0.00;0.00;;;;;;;;;;4879574;29;20033;-69
2024/03/06 11:24:19;;;;;;;0.07;0.07;;;;;;;;;;4879546;29;20032;-69
2024/03/06 11:26:57;;;;;;;0.10;0.10;;;;;;;;;;4879977;29;20029;-69
2024/03/06 11:29:23;;;;;;;0.00;0.00;;;;;;;;;;4879338;29;20032;-69
2024/03/06 11:32:00;;;;;;;0.10;0.10;;;;;;;;;;4879643;29;20017;-68
2024/03/06 11:34:26;;;;;;;0.13;0.13;;;;;;;;;;4879281;29;20389;-69
2024/03/06 11:36:53;;;;;;;0.45;0.45;;;;;;;;;;4878373;29;20029;-68
2024/03/06 11:39:19;;;;;;;0.00;0.00;;;;;;;;;;4876274;29;20040;-68
2024/03/06 11:41:49;;;;;;;0.20;0.20;;;;;;;;;;4878613;29;20385;-68
2024/03/06 11:44:21;;;;;;;0.05;0.05;;;;;;;;;;4883800;29;20056;-68
2024/03/06 11:46:48;;;;;;;0.15;0.15;;;;;;;;;;4876490;29;20021;-67
2024/03/06 11:49:18;;;;;;;0.10;0.10;;;;;;;;;;4878779;29;20386;-68
2024/03/06 11:51:44;;;;;;;0.10;0.10;;;;;;;;;;4879151;29;20033;-67
2024/03/06 11:54:10;;;;;;;0.03;0.03;;;;;;;;;;4878987;29;20029;-67
2024/03/06 11:56:36;;;;;;;0.10;0.10;;;;;;;;;;4878955;29;20044;-67
2024/03/06 11:59:01;;;;;;;0.10;0.10;;;;;;;;;;4879258;29;20462;-67
2024/03/06 12:01:41;;;;;;;0.10;0.10;;;;;;;;;;4878589;29;20049;-67
2024/03/06 12:04:06;;;;;;;0.00;0.00;;;;;;;;;;4877896;29;20279;-67
2024/03/06 12:06:35;;;;;;;0.07;0.07;;;;;;;;;;4878999;29;20390;-67
2024/03/06 12:09:00;;;;;;;0.03;0.03;;;;;;;;;;4884489;29;20020;-67
2024/03/06 12:11:25;;;;;;;0.30;0.30;;;;;;;;;;4885235;29;20450;-67
2024/03/06 12:13:51;;;;;;;0.03;0.03;;;;;;;;;;4890012;29;20077;-67
2024/03/06 12:16:17;;;;;;;0.13;0.13;;;;;;;;;;4897717;29;20533;-68
2024/03/06 12:18:42;;;;;;;0.52;0.40;;;;;;;;;;4898215;29;20027;-67
2024/03/06 12:21:07;;;;;;;0.00;0.00;;;;;;;;;;4897647;29;20479;-67
2024/03/06 12:23:32;;;;;;;0.10;0.10;;;;;;;;;;4885749;29;20385;-67
2024/03/06 12:26:05;;;;;;;0.10;0.10;;;;;;;;;;4879114;29;20108;-67
2024/03/06 12:28:30;;;;;;;;;;;;;;;;;;4879562;29;20288;-67
2024/03/06 12:30:55;;;;;;;0.00;0.00;;;;;;;;;;4879055;29;19915;-67
2024/03/06 12:33:20;;;;;;;0.30;0.28;;;;;;;;;;4879107;29;20385;-67
2024/03/06 12:35:46;;;;;;;0.00;0.00;;;;;;;;;;4878531;29;20359;-67
2024/03/06 12:38:15;;;;;;;0.00;0.00;;;;;;;;;;4866466;29;20034;-68
2024/03/06 12:40:41;;;;;;;0.05;0.05;;;;;;;;;;4860562;29;20033;-67
2024/03/06 12:43:06;;;;;;;0.30;0.30;;;;;;;;;;4860738;29;20117;-67
2024/03/06 12:45:31;;;;;;;0.10;0.10;;;;;;;;;;4862974;29;20086;-67
2024/03/06 12:47:56;;;;;;;0.10;0.10;;;;;;;;;;4866515;29;20364;-67
2024/03/06 12:50:21;;;;;;;0.07;0.07;;;;;;;;;;4865762;29;20037;-68
2024/03/06 12:52:47;;;;;;;0.10;0.10;;;;;;;;;;4866506;29;20029;-67
2024/03/06 12:55:13;;;;;;;0.20;0.20;;;;;;;;;;4866458;29;20029;-68
2024/03/06 12:57:38;;;;;;;0.00;0.00;;;;;;;;;;4866970;29;20029;-67
2024/03/06 13:00:06;;;;;;;0.20;0.20;;;;;;;;;;4878263;29;20021;-67
2024/03/06 13:02:32;;;;;;;0.00;0.00;;;;;;;;;;4884534;29;20775;-67
2024/03/06 13:04:57;;;;;;;0.20;0.20;;;;;;;;;;4884316;29;20036;-68
2024/03/06 13:07:22;;;;;;;0.00;0.00;;;;;;;;;;4882225;29;20126;-68
2024/03/06 13:09:47;;;;;;;0.63;0.63;;;;;;;;;;4866354;29;20021;-67
2024/03/06 13:12:12;;;;;;;0.00;0.00;;;;;;;;;;4866287;29;20086;-67
2024/03/06 13:14:38;;;;;;;0.00;0.00;;;;;;;;;;4878958;29;20029;-67
2024/03/06 13:17:03;;;;;;;0.00;0.00;;;;;;;;;;4885004;29;20393;-67
2024/03/06 13:19:29;;;;;;;0.00;0.00;;;;;;;;;;4884527;29;20485;-67
2024/03/06 13:21:54;;;;;;;0.00;0.00;;;;;;;;;;4884427;29;20157;-67
2024/03/06 13:24:20;;;;;;;0.10;0.10;;;;;;;;;;4884446;29;20385;-68
2024/03/06 13:26:47;;;;;;;0.80;0.52;;;;;;;;;;4884320;29;20033;-67
2024/03/06 13:29:13;;;;;;;0.08;0.08;;;;;;;;;;4884793;29;20040;-68
2024/03/06 13:31:38;;;;;;;0.00;0.00;;;;;;;;;;4884657;29;20025;-67
2024/03/06 13:34:04;;;;;;;0.00;0.00;;;;;;;;;;4881261;29;20028;-67
2024/03/06 13:36:29;;;;;;;0.15;0.15;;;;;;;;;;4873136;29;20270;-67
2024/03/06 13:38:54;;;;;;;0.00;0.00;;;;;;;;;;4871007;29;20427;-67
2024/03/06 13:41:19;;;;;;;0.13;0.13;;;;;;;;;;4879747;29;20060;-67
2024/03/06 13:43:45;;;;;;;0.53;0.53;;;;;;;;;;4884798;29;20299;-67
2024/03/06 13:46:10;;;;;;;0.10;0.10;;;;;;;;;;4884357;29;20016;-68
2024/03/06 13:48:36;;;;;;;1.60;0.53;;;;;;;;;;4884274;29;20025;-67
2024/03/06 13:51:01;;;;;;;0.00;0.00;;;;;;;;;;4884023;29;20466;-67
2024/03/06 13:53:27;;;;;;;0.00;0.00;;;;;;;;;;4884286;29;20036;-68
2024/03/06 13:55:52;;;;;;;0.00;0.00;;;;;;;;;;4884697;29;20108;-67
2024/03/06 13:58:17;;;;;;;0.25;0.20;;;;;;;;;;4881799;29;20029;-67
2024/03/06 14:00:43;;;;;;;0.17;0.17;;;;;;;;;;4881742;29;20447;-69
2024/03/06 14:03:09;;;;;;;0.10;0.10;;;;;;;;;;4881425;29;20292;-66
2024/03/06 14:05:34;;;;;;;0.00;0.00;;;;;;;;;;4880987;29;20029;-66
2024/03/06 14:07:59;;;;;;;0.00;0.00;;;;;;;;;;4881085;29;20036;-66
2024/03/06 14:10:26;;;;;;;0.00;0.00;;;;;;;;;;4881379;29;20497;-66
2024/03/06 14:12:52;;;;;;;0.00;0.00;;;;;;;;;;4881690;29;20057;-66
2024/03/06 14:15:18;;;;;;;0.20;0.20;;;;;;;;;;4881245;29;20386;-67
2024/03/06 14:17:44;;;;;;;0.20;0.20;;;;;;;;;;4881550;29;20120;-66
2024/03/06 14:20:12;;;;;;;0.10;0.10;;;;;;;;;;4880868;29;20116;-67
2024/03/06 14:22:37;;;;;;;0.00;0.00;;;;;;;;;;4881074;29;20039;-66
2024/03/06 14:25:02;;;;;;;0.57;0.57;;;;;;;;;;4881344;29;20021;-66
2024/03/06 14:27:27;;;;;;;0.00;0.00;;;;;;;;;;4881148;29;20363;-66
2024/03/06 14:29:54;;;;;;;0.07;0.07;;;;;;;;;;4881223;29;20053;-66
2024/03/06 14:32:19;;;;;;;0.20;0.20;;;;;;;;;;4880577;29;20033;-67
2024/03/06 14:34:44;;;;;;;1.17;0.52;;;;;;;;;;4880660;29;20077;-66